Time;durP1;ratioP1;P1;durP2;ratioP2;P2;SDS_P1;SDS_P2;PMS_P1;PMS_P2;Temp;Humidity;BMP_temperature;BMP_pressure;BME280_temperature;BME280_humidity;BME280_pressure;Samples;Min_cycle;Max_cycle;Signal;HPM_P1;HPM_P2
2022/06/08 00:01:14;;;;;;;2.50;1.30;;;;;;;12.14;100.00;101183.81;5035897;28;20484;-70
2022/06/08 00:03:50;;;;;;;3.40;1.37;;;;;;;11.91;100.00;101155.38;5036902;28;20521;-71
2022/06/08 00:06:16;;;;;;;2.70;1.40;;;;;;;11.82;100.00;101140.41;5030540;28;20805;-71
2022/06/08 00:08:41;;;;;;;3.73;2.07;;;;;;;11.80;100.00;101152.41;5032203;28;20561;-70
2022/06/08 00:11:07;;;;;;;4.37;1.67;;;;;;;11.91;100.00;101176.88;5032446;28;20513;-71
2022/06/08 00:13:33;;;;;;;3.00;1.40;;;;;;;11.87;100.00;101177.50;5035405;28;20551;-71
2022/06/08 00:15:59;;;;;;;4.23;1.77;;;;;;;11.59;100.00;101159.53;5035128;28;20237;-71
2022/06/08 00:18:24;;;;;;;2.33;1.33;;;;;;;11.71;100.00;101162.47;5034797;28;20442;-71
2022/06/08 00:20:50;;;;;;;2.10;1.50;;;;;;;11.82;100.00;101178.03;5036678;28;20196;-71
2022/06/08 00:23:16;;;;;;;2.87;1.60;;;;;;;11.76;100.00;101178.84;5034376;28;20187;-71
2022/06/08 00:25:42;;;;;;;3.13;1.63;;;;;;;11.62;100.00;101169.88;5032810;28;20453;-71
2022/06/08 00:28:07;;;;;;;2.90;1.83;;;;;;;11.40;100.00;101107.34;5035142;28;20198;-71
2022/06/08 00:30:33;;;;;;;2.60;1.60;;;;;;;11.66;100.00;101155.03;5036478;28;20191;-71
2022/06/08 00:32:58;;;;;;;2.50;1.47;;;;;;;11.71;100.00;101166.00;5035198;28;20253;-71
2022/06/08 00:35:24;;;;;;;2.50;1.53;;;;;;;11.76;100.00;101160.84;5038000;28;20203;-71
2022/06/08 00:37:50;;;;;;;3.40;1.90;;;;;;;11.75;100.00;101155.69;5034215;28;20298;-71
2022/06/08 00:40:19;;;;;;;2.90;2.00;;;;;;;11.22;100.00;101066.72;5035707;28;20451;-71
2022/06/08 00:42:45;;;;;;;4.50;2.50;;;;;;;11.45;100.00;101112.13;5034125;28;20180;-71
2022/06/08 00:45:14;;;;;;;3.63;1.87;;;;;;;11.61;100.00;101152.09;5031959;28;20441;-71
2022/06/08 00:47:50;;;;;;;2.90;1.70;;;;;;;11.53;100.00;101145.03;5035135;28;20270;-71
2022/06/08 00:50:26;;;;;;;2.33;1.40;;;;;;;11.30;100.00;101112.22;5036049;28;20437;-70
2022/06/08 00:52:53;;;;;;;2.73;1.67;;;;;;;11.37;100.00;101129.25;5035205;28;20468;-71
2022/06/08 00:55:22;;;;;;;2.03;1.60;;;;;;;11.23;100.00;101092.56;5032298;28;20609;-71
2022/06/08 00:57:55;;;;;;;2.60;1.73;;;;;;;11.53;100.00;101144.19;5033056;28;20963;-71
2022/06/08 01:00:27;;;;;;;2.90;2.17;;;;;;;11.19;100.00;101097.50;5034436;28;20449;-71
2022/06/08 01:02:53;;;;;;;4.93;2.07;;;;;;;11.42;100.00;101128.63;5035575;28;20595;-71
2022/06/08 01:05:31;;;;;;;3.63;2.10;;;;;;;11.51;100.00;101148.94;5034254;28;20849;-71
2022/06/08 01:08:04;;;;;;;3.07;1.50;;;;;;;11.16;100.00;101113.16;5038522;28;20207;-71
2022/06/08 01:10:44;;;;;;;2.00;1.67;;;;;;;11.19;100.00;101113.59;5036149;28;20441;-70
2022/06/08 01:13:09;;;;;;;2.60;2.10;;;;;;;11.36;100.00;101127.56;5032908;28;20458;-71
2022/06/08 01:15:37;;;;;;;5.17;2.17;;;;;;;11.37;100.00;101133.75;5034170;28;20535;-71
2022/06/08 01:18:03;;;;;;;3.97;2.47;;;;;;;11.29;100.00;101121.31;5033073;28;20225;-71
2022/06/08 01:20:28;;;;;;;5.27;2.57;;;;;;;10.93;100.00;101073.97;5033800;28;20465;-71
2022/06/08 01:22:54;;;;;;;3.23;2.27;;;;;;;11.19;100.00;101128.88;5032837;28;20430;-72
2022/06/08 01:25:21;;;;;;;3.07;2.50;;;;;;;11.29;100.00;101140.13;5029023;28;20192;-72
2022/06/08 01:27:55;;;;;;;4.30;2.77;;;;;;;11.30;100.00;101137.22;5032821;28;20299;-72
2022/06/08 01:30:25;;;;;;;3.23;2.87;;;;;;;11.29;100.00;101140.13;5030517;28;20438;-72
2022/06/08 01:32:56;;;;;;;2.97;2.60;;;;;;;11.25;100.00;101146.91;5034664;28;20459;-72
2022/06/08 01:35:57;;;;;;;4.70;3.20;;;;;;;11.30;100.00;101142.59;5033465;28;20446;-71
2022/06/08 01:38:53;;;;;;;6.00;3.20;;;;;;;11.25;100.00;101147.75;5037249;28;20969;-71
2022/06/08 01:41:36;;;;;;;4.30;2.90;;;;;;;11.24;100.00;101147.94;5027704;28;20833;-72
2022/06/08 01:44:10;;;;;;;3.23;2.77;;;;;;;11.31;100.00;101138.91;5032385;28;20466;-72
2022/06/08 01:46:58;;;;;;;9.80;3.57;;;;;;;11.36;100.00;101132.09;5032034;28;20477;-71
2022/06/08 01:49:54;;;;;;;5.00;3.30;;;;;;;11.33;100.00;101130.63;5029897;28;20987;-71
2022/06/08 01:52:42;;;;;;;4.30;3.03;;;;;;;11.29;100.00;101124.84;5006551;28;20469;-72
2022/06/08 01:55:19;;;;;;;4.07;2.90;;;;;;;11.22;100.00;101118.56;5032566;28;20457;-71
2022/06/08 01:58:16;;;;;;;4.03;3.33;;;;;;;11.07;100.00;101088.31;5033224;28;26258;-72
2022/06/08 02:00:47;;;;;;;4.33;3.17;;;;;;;10.91;100.00;101073.38;5031856;28;20849;-72
2022/06/08 02:03:25;;;;;;;4.13;3.27;;;;;;;11.14;100.00;101112.53;5035551;28;20431;-71
2022/06/08 02:05:50;;;;;;;4.37;2.97;;;;;;;11.11;100.00;101113.78;5032825;28;20465;-71
2022/06/08 02:08:30;;;;;;;3.40;3.10;;;;;;;11.03;100.00;101089.75;5038455;28;20438;-72
2022/06/08 02:11:08;;;;;;;4.00;3.30;;;;;;;11.20;100.00;101104.53;5031228;28;20209;-71
2022/06/08 02:14:14;;;;;;;4.40;3.40;;;;;;;11.03;100.00;101101.31;5031292;28;21113;-73
2022/06/08 02:17:05;;;;;;;3.87;3.13;;;;;;;11.04;100.00;101105.66;4970026;28;20481;-72
2022/06/08 02:19:47;;;;;;;7.30;3.80;;;;;;;10.86;100.00;101078.47;4970748;28;20449;-72
2022/06/08 02:22:17;;;;;;;4.60;3.10;;;;;;;11.04;100.00;101086.84;5021483;28;20507;-72
2022/06/08 02:24:59;;;;;;;6.90;3.00;;;;;;;10.51;100.00;101003.28;5031475;28;22108;-72
2022/06/08 02:27:37;;;;;;;4.27;3.03;;;;;;;10.85;100.00;101069.59;5039368;28;20474;-73
2022/06/08 02:30:10;;;;;;;4.33;3.20;;;;;;;10.98;100.00;101087.66;5036162;28;20446;-72
2022/06/08 02:35:42;;;;;;;5.83;3.30;;;;;;;10.90;100.00;101079.72;5041733;28;20425;-72
2022/06/08 02:38:12;;;;;;;3.10;2.80;;;;;;;10.94;100.00;101085.56;5039443;28;20497;-72
2022/06/08 02:40:42;;;;;;;6.00;3.30;;;;;;;10.46;100.00;100997.69;5033927;28;20450;-72
2022/06/08 02:43:16;;;;;;;4.63;3.03;;;;;;;10.94;100.00;101074.84;5039043;28;20438;-72
2022/06/08 02:45:44;;;;;;;3.00;2.67;;;;;;;10.86;100.00;101070.44;5034530;28;20430;-72
2022/06/08 02:48:13;;;;;;;3.67;2.83;;;;;;;10.85;100.00;101068.78;5036016;28;20486;-72
2022/06/08 02:50:49;;;;;;;6.47;4.13;;;;;;;10.50;100.00;101014.22;5036233;28;20472;-72
2022/06/08 02:53:17;;;;;;;4.33;3.10;;;;;;;10.80;100.00;101071.22;5036370;28;21040;-72
2022/06/08 02:55:52;;;;;;;3.30;3.00;;;;;;;10.92;100.00;101061.59;5031821;28;20533;-72
2022/06/08 02:58:30;;;;;;;5.00;2.80;;;;;;;10.93;100.00;101060.56;5036930;28;21170;-72
2022/06/08 03:01:04;;;;;;;2.70;2.50;;;;;;;10.86;100.00;101060.50;5036946;28;20438;-72
2022/06/08 03:03:46;;;;;;;2.60;2.40;;;;;;;10.83;100.00;101050.19;5035860;28;20446;-72
2022/06/08 03:06:21;;;;;;;3.60;3.17;;;;;;;10.76;100.00;101041.25;5038439;28;20469;-71
2022/06/08 03:08:53;;;;;;;3.93;3.10;;;;;;;10.48;100.00;100989.47;5035533;28;20943;-72
2022/06/08 03:11:20;;;;;;;3.40;2.87;;;;;;;10.34;100.00;100959.84;5038371;28;20453;-71
2022/06/08 03:13:52;;;;;;;3.20;2.67;;;;;;;10.78;100.00;101035.69;5034958;28;21488;-72
2022/06/08 03:16:28;;;;;;;3.10;2.70;;;;;;;10.74;100.00;101037.13;5037006;28;20509;-71
2022/06/08 03:18:54;;;;;;;3.40;3.00;;;;;;;10.72;100.00;101039.16;5037504;28;20454;-72
2022/06/08 03:21:20;;;;;;;5.50;3.10;;;;;;;10.67;100.00;101033.53;5039676;28;20613;-71
2022/06/08 03:23:48;;;;;;;2.90;2.60;;;;;;;10.80;100.00;101037.16;5041005;28;20207;-71
2022/06/08 03:26:13;;;;;;;3.50;3.00;;;;;;;10.48;100.00;100984.09;5041343;28;20481;-71
2022/06/08 03:28:38;;;;;;;4.27;3.33;;;;;;;9.89;100.00;100916.34;5041485;28;20922;-71
2022/06/08 03:31:04;;;;;;;3.57;3.23;;;;;;;10.67;100.00;101034.34;5042691;28;20297;-71
2022/06/08 03:33:29;;;;;;;4.63;3.23;;;;;;;10.56;100.00;101025.00;5038369;28;20863;-71
2022/06/08 03:35:55;;;;;;;3.13;2.83;;;;;;;9.83;100.00;100900.19;5036158;28;20249;-71
2022/06/08 03:38:20;;;;;;;5.43;3.20;;;;;;;10.48;100.00;101032.38;5041385;28;20184;-71
2022/06/08 03:40:45;;;;;;;5.13;3.70;;;;;;;10.40;100.00;101017.22;5036787;28;20181;-71
2022/06/08 03:43:11;;;;;;;4.00;3.30;;;;;;;10.11;100.00;100967.25;5039854;28;20211;-71
2022/06/08 03:45:44;;;;;;;4.07;3.13;;;;;;;10.57;100.00;101036.56;5041293;28;20187;-71
2022/06/08 03:48:09;;;;;;;5.37;3.87;;;;;;;10.34;100.00;101001.91;5039249;28;20196;-71
2022/06/08 03:50:35;;;;;;;4.67;3.03;;;;;;;9.96;100.00;100946.72;5042727;28;20465;-71
2022/06/08 03:53:06;;;;;;;4.27;3.13;;;;;;;10.57;100.00;101025.84;5040405;28;20217;-71
2022/06/08 03:55:34;;;;;;;3.97;3.33;;;;;;;10.61;100.00;101029.78;5042339;28;20175;-71
2022/06/08 03:58:01;;;;;;;4.30;3.20;;;;;;;10.73;100.00;101040.78;5041080;28;20430;-71
2022/06/08 04:00:27;;;;;;;4.37;3.37;;;;;;;10.31;100.00;100954.88;5042105;28;20489;-70
2022/06/08 04:02:53;;;;;;;6.60;3.33;;;;;;;10.77;100.00;101034.84;5043154;28;20435;-70
2022/06/08 04:05:19;;;;;;;8.40;3.97;;;;;;;10.75;100.00;101050.31;5041674;28;20432;-71
2022/06/08 04:07:45;;;;;;;3.50;3.20;;;;;;;10.80;100.00;101033.66;5039325;28;20446;-71
2022/06/08 04:10:11;;;;;;;5.47;4.00;;;;;;;10.72;100.00;101010.47;5042780;28;20188;-71
2022/06/08 04:12:37;;;;;;;4.27;3.47;;;;;;;10.70;100.00;101017.03;5040815;28;20421;-71
2022/06/08 04:15:03;;;;;;;7.17;4.50;;;;;;;10.80;100.00;101039.84;5041368;28;20930;-71
2022/06/08 04:17:29;;;;;;;6.27;4.40;;;;;;;10.45;100.00;100990.66;5039891;28;20568;-70
2022/06/08 04:19:55;;;;;;;4.30;3.37;;;;;;;10.88;100.00;101046.06;5036419;28;20524;-71
2022/06/08 04:22:21;;;;;;;6.13;3.50;;;;;;;10.44;100.00;100955.97;5040764;28;20191;-71
2022/06/08 04:24:47;;;;;;;4.40;3.50;;;;;;;10.87;100.00;101039.88;5035429;28;20648;-71
2022/06/08 04:27:14;;;;;;;6.77;4.20;;;;;;;10.90;100.00;101031.44;5039043;28;20474;-71
2022/06/08 04:29:40;;;;;;;4.07;3.63;;;;;;;10.85;100.00;101017.78;5033035;28;23822;-71
2022/06/08 04:32:09;;;;;;;4.00;3.33;;;;;;;10.86;100.00;101000.66;5037485;28;20449;-71
2022/06/08 04:34:35;;;;;;;7.13;3.97;;;;;;;11.04;100.00;101029.66;5038443;28;20467;-71
2022/06/08 04:37:00;;;;;;;6.10;4.00;;;;;;;10.83;100.00;100972.34;5039930;28;21044;-71
2022/06/08 04:39:25;;;;;;;5.17;4.07;;;;;;;10.73;100.00;100963.84;5034476;28;20180;-71
2022/06/08 04:41:51;;;;;;;7.20;4.40;;;;;;;11.28;100.00;101039.09;5037922;28;20238;-71
2022/06/08 04:44:16;;;;;;;6.50;4.70;;;;;;;11.28;100.00;101041.78;5036169;28;20200;-71
2022/06/08 04:46:42;;;;;;;4.60;3.53;;;;;;;11.36;100.00;101038.09;5033620;28;20222;-71
2022/06/08 04:49:08;;;;;;;6.37;4.30;;;;;;;11.19;100.00;101016.94;5035422;28;20217;-71
2022/06/08 04:51:34;;;;;;;5.00;4.10;;;;;;;11.38;100.00;101041.44;5029469;28;20249;-71
2022/06/08 04:54:00;;;;;;;5.70;4.77;;;;;;;11.21;100.00;101014.06;5032082;28;20987;-71
2022/06/08 04:56:25;;;;;;;10.20;6.63;;;;;;;11.41;100.00;101041.84;5033279;28;20938;-71
2022/06/08 04:58:54;;;;;;;6.37;5.73;;;;;;;11.11;100.00;100984.91;5035816;28;20187;-71
2022/06/08 05:01:20;;;;;;;5.87;4.60;;;;;;;11.63;100.00;101045.28;5036173;28;20192;-71
2022/06/08 05:03:45;;;;;;;8.37;6.30;;;;;;;11.28;100.00;100983.56;5036462;28;20798;-71
2022/06/08 05:06:11;;;;;;;8.00;5.90;;;;;;;11.73;100.00;101039.50;5038394;28;20462;-71
2022/06/08 05:08:36;;;;;;;10.73;6.87;;;;;;;11.81;100.00;101054.63;5038003;28;20691;-71
2022/06/08 05:11:05;;;;;;;7.77;6.33;;;;;;;11.62;100.00;101003.28;5038657;28;20235;-71
2022/06/08 05:13:31;;;;;;;7.97;7.17;;;;;;;11.89;100.00;101044.56;5037203;28;20199;-71
2022/06/08 05:15:57;;;;;;;8.10;7.10;;;;;;;11.67;100.00;101005.38;5033977;28;20470;-71
2022/06/08 05:18:23;;;;;;;8.90;6.80;;;;;;;11.44;100.00;100962.75;5038256;28;20455;-72
2022/06/08 05:20:49;;;;;;;8.90;7.50;;;;;;;11.43;100.00;100964.59;5038427;28;20176;-71
2022/06/08 05:23:20;;;;;;;8.30;6.60;;;;;;;11.94;100.00;101049.31;5037781;28;20797;-71
2022/06/08 05:25:46;;;;;;;11.97;7.97;;;;;;;11.75;100.00;101016.78;5035264;28;20441;-71
2022/06/08 05:28:13;;;;;;;10.87;8.07;;;;;;;11.64;100.00;100984.31;5034312;28;20533;-71
2022/06/08 05:30:40;;;;;;;8.87;8.00;;;;;;;11.85;100.00;100999.44;5038329;28;20486;-72
2022/06/08 05:33:06;;;;;;;11.43;8.20;;;;;;;12.23;100.00;101034.69;5036861;28;20527;-71
2022/06/08 05:35:31;;;;;;;11.17;8.37;;;;;;;12.04;100.00;100995.19;5036974;28;20439;-72
2022/06/08 05:37:57;;;;;;;11.87;8.70;;;;;;;12.19;100.00;101017.31;5037494;28;20751;-72
2022/06/08 05:40:24;;;;;;;12.93;8.80;;;;;;;12.59;100.00;101049.63;5036249;28;20199;-72
2022/06/08 05:42:49;;;;;;;12.03;8.63;;;;;;;12.39;100.00;100988.56;5035851;28;20188;-72
2022/06/08 05:45:19;;;;;;;9.50;8.00;;;;;;;12.87;100.00;101035.94;5034403;28;20929;-72
2022/06/08 05:47:45;;;;;;;12.80;8.20;;;;;;;12.86;100.00;101039.66;5037564;28;20687;-72
2022/06/08 05:50:10;;;;;;;12.60;9.00;;;;;;;12.47;100.00;100981.31;5035639;28;20850;-72
2022/06/08 05:52:36;;;;;;;12.40;9.10;;;;;;;12.94;100.00;101031.38;5038146;28;20691;-72
2022/06/08 05:55:02;;;;;;;12.00;7.70;;;;;;;12.87;100.00;101000.94;5032682;28;20245;-72
2022/06/08 05:57:27;;;;;;;10.80;7.83;;;;;;;12.72;100.00;100966.19;5038143;28;20254;-72
2022/06/08 05:59:53;;;;;;;9.10;7.33;;;;;;;13.06;100.00;100999.25;5038408;28;20198;-72
2022/06/08 06:02:18;;;;;;;11.93;9.30;;;;;;;13.03;100.00;100997.81;5036841;28;20564;-72
2022/06/08 06:04:44;;;;;;;14.80;9.03;;;;;;;12.86;100.00;100967.00;5040788;28;20191;-72
2022/06/08 06:07:11;;;;;;;10.07;9.07;;;;;;;13.32;100.00;101018.06;5037030;28;20211;-72
2022/06/08 06:09:37;;;;;;;9.20;7.73;;;;;;;13.43;100.00;101013.06;5038271;28;20238;-71
2022/06/08 06:12:03;;;;;;;11.77;8.70;;;;;;;13.47;100.00;101003.50;5037266;28;21157;-72
2022/06/08 06:14:29;;;;;;;10.70;8.27;;;;;;;13.14;100.00;100920.94;5038129;28;20459;-72
2022/06/08 06:16:54;;;;;;;10.40;8.73;;;;;;;13.65;100.00;100986.63;5036042;28;20304;-71
2022/06/08 06:19:20;;;;;;;10.60;8.47;;;;;;;13.57;100.00;100958.06;5041350;28;20644;-71
2022/06/08 06:21:45;;;;;;;8.47;7.57;;;;;;;13.81;100.00;100978.03;5039758;28;20659;-72
2022/06/08 06:24:11;;;;;;;9.60;8.60;;;;;;;13.85;100.00;100973.84;5039741;28;20442;-72
2022/06/08 06:26:37;;;;;;;11.00;9.90;;;;;;;13.91;100.00;100977.53;5042416;28;20342;-72
2022/06/08 06:29:02;;;;;;;10.83;9.60;;;;;;;13.34;100.00;100893.94;5037556;28;20660;-72
2022/06/08 06:31:41;;;;;;;11.60;9.63;;;;;;;13.93;100.00;100968.19;5039990;28;20263;-72
2022/06/08 06:34:11;;;;;;;11.83;9.87;;;;;;;14.04;100.00;100969.38;5040121;28;20207;-71
2022/06/08 06:36:36;;;;;;;12.83;11.10;;;;;;;13.75;100.00;100928.50;5040505;28;21056;-71
2022/06/08 06:39:02;;;;;;;14.00;11.13;;;;;;;13.72;100.00;100907.38;5038006;28;20446;-72
2022/06/08 06:41:29;;;;;;;10.47;9.27;;;;;;;13.85;100.00;100905.63;5040461;28;20621;-72
2022/06/08 06:43:54;;;;;;;12.00;10.47;;;;;;;14.06;100.00;100936.78;5041422;28;20438;-72
2022/06/08 06:46:20;;;;;;;15.13;11.50;;;;;;;14.04;100.00;100950.50;5037383;28;20470;-72
2022/06/08 06:48:45;;;;;;;18.13;12.20;;;;;;;14.21;100.00;100965.09;5037577;28;20274;-72
2022/06/08 06:51:11;;;;;;;13.80;11.17;;;;;;;13.97;100.00;100898.47;5040613;28;20245;-72
2022/06/08 06:53:37;;;;;;;11.20;10.00;;;;;;;14.45;100.00;100951.81;5037545;28;20618;-71
2022/06/08 06:56:02;;;;;;;11.80;10.00;;;;;;;14.54;100.00;100947.00;5041286;28;20466;-72
2022/06/08 06:58:28;;;;;;;12.23;10.93;;;;;;;14.18;100.00;100881.91;5038095;28;20180;-72
2022/06/08 07:00:53;;;;;;;15.67;12.30;;;;;;;14.04;100.00;100866.06;5037234;28;20184;-71
2022/06/08 07:03:20;;;;;;;12.87;10.73;;;;;;;14.36;100.00;100909.97;5039806;28;20180;-71
2022/06/08 07:05:46;;;;;;;12.33;10.47;;;;;;;14.09;100.00;100844.63;5036605;28;20176;-71
2022/06/08 07:08:11;;;;;;;14.63;12.30;;;;;;;14.62;100.00;100939.44;5039485;28;20450;-71
2022/06/08 07:10:36;;;;;;;12.67;10.73;;;;;;;14.30;100.00;100884.69;5032531;28;20181;-71
2022/06/08 07:13:02;;;;;;;12.97;10.67;;;;;;;14.69;100.00;100942.06;5039086;28;20196;-71
2022/06/08 07:15:29;;;;;;;12.20;11.00;;;;;;;14.73;100.00;100937.88;5038072;28;20242;-71
2022/06/08 07:17:55;;;;;;;11.73;10.50;;;;;;;14.84;100.00;100934.44;5038430;28;20230;-72
2022/06/08 07:20:21;;;;;;;12.47;11.10;;;;;;;14.61;100.00;100896.44;5041777;28;20484;-71
2022/06/08 07:22:48;;;;;;;12.80;11.40;;;;;;;14.48;100.00;100848.81;5038456;28;20184;-72
2022/06/08 07:25:14;;;;;;;12.60;10.37;;;;;;;14.46;100.00;100851.75;5039657;28;20434;-72
2022/06/08 07:27:40;;;;;;;11.17;9.50;;;;;;;15.02;100.00;100920.09;5039603;28;20493;-72
2022/06/08 07:30:07;;;;;;;10.40;8.80;;;;;;;14.74;100.00;100866.63;5038543;28;20443;-72
2022/06/08 07:32:33;;;;;;;9.20;8.30;;;;;;;15.11;100.00;100909.81;5039003;28;20438;-72
2022/06/08 07:34:59;;;;;;;10.67;9.57;;;;;;;15.22;100.00;100905.53;5038018;28;20476;-72
2022/06/08 07:37:25;;;;;;;11.10;10.03;;;;;;;15.21;100.00;100906.56;5037113;28;20466;-72
2022/06/08 07:39:52;;;;;;;13.33;11.50;;;;;;;15.29;100.00;100892.75;5035785;28;20672;-72
2022/06/08 07:42:18;;;;;;;11.00;9.20;;;;;;;14.97;100.00;100832.69;5040199;28;20442;-72
2022/06/08 07:44:44;;;;;;;10.83;9.17;;;;;;;15.41;100.00;100896.31;5038515;28;20433;-72
2022/06/08 07:47:10;;;;;;;12.77;11.00;;;;;;;15.57;100.00;100889.44;5035872;28;20582;-72
2022/06/08 07:49:49;;;;;;;15.00;11.20;;;;;;;15.28;100.00;100832.47;5039214;28;20439;-72
2022/06/08 07:52:19;;;;;;;11.80;10.60;;;;;;;15.67;100.00;100873.47;5035277;28;20176;-72
2022/06/08 07:54:46;;;;;;;10.10;9.10;;;;;;;15.74;100.00;100874.22;5039578;28;21026;-72
2022/06/08 07:57:22;;;;;;;10.70;9.60;;;;;;;15.87;100.00;100886.72;5037238;28;20461;-72
2022/06/08 07:59:49;;;;;;;11.23;8.87;;;;;;;16.01;100.00;100873.81;5037445;28;20437;-72
2022/06/08 08:02:15;;;;;;;10.13;8.50;;;;;;;15.76;100.00;100852.34;5035683;28;20442;-73
2022/06/08 08:04:41;;;;;;;9.03;8.10;;;;;;;16.15;100.00;100863.56;5034923;28;20787;-72
2022/06/08 08:07:06;;;;;;;11.20;9.60;;;;;;;16.04;100.00;100808.41;5034634;28;20450;-72
2022/06/08 08:09:34;;;;;;;9.67;8.67;;;;;;;16.18;100.00;100847.69;5037525;28;21039;-72
2022/06/08 08:12:00;;;;;;;10.80;8.47;;;;;;;15.87;100.00;100775.81;5037505;28;20241;-72
2022/06/08 08:14:26;;;;;;;11.43;8.50;;;;;;;16.15;100.00;100842.75;5038508;28;20997;-72
2022/06/08 08:16:52;;;;;;;11.93;8.23;;;;;;;15.98;100.00;100815.56;5037843;28;21055;-72
2022/06/08 08:19:20;;;;;;;12.37;8.10;;;;;;;16.35;100.00;100846.97;5039703;28;20801;-72
2022/06/08 08:21:46;;;;;;;10.97;8.20;;;;;;;16.19;100.00;100824.16;5038600;28;20534;-72
2022/06/08 08:24:13;;;;;;;16.23;8.90;;;;;;;16.10;100.00;100806.63;5052163;28;20853;-72
2022/06/08 08:26:38;;;;;;;9.30;8.40;;;;;;;16.44;100.00;100850.97;5043039;28;20938;-72
2022/06/08 08:29:04;;;;;;;11.77;8.97;;;;;;;16.38;100.00;100830.25;5040996;28;20425;-72
2022/06/08 08:31:31;;;;;;;9.33;8.03;;;;;;;16.78;100.00;100835.75;5039812;28;20433;-72
2022/06/08 08:33:57;;;;;;;8.80;7.10;;;;;;;16.85;100.00;100830.19;5035329;28;20199;-72
2022/06/08 08:36:22;;;;;;;10.27;8.80;;;;;;;16.62;100.00;100804.78;5039096;28;20466;-72
2022/06/08 08:38:48;;;;;;;8.70;7.80;;;;;;;16.86;100.00;100810.97;5031994;28;20267;-72
2022/06/08 08:44:04;;;;;;;9.70;8.67;;;;;;;16.31;100.00;100745.66;5034294;28;20206;-72
2022/06/08 08:46:48;;;;;;;9.37;8.37;;;;;;;16.68;100.00;100789.47;5028396;28;20450;-72
2022/06/08 08:51:58;;;;;;;10.33;9.07;;;;;;;16.66;100.00;100761.78;5598910;22;20520;-69
2022/06/08 08:54:36;;;;;;;10.53;7.50;;;;;;;17.08;100.00;100804.88;4946011;28;20471;-69
2022/06/08 08:57:04;;;;;;;12.63;8.70;;;;;;;17.17;100.00;100808.84;4957443;28;20477;-69
2022/06/08 08:59:31;;;;;;;9.40;7.70;;;;;;;17.00;100.00;100778.19;4955716;28;20443;-69
2022/06/08 09:01:58;;;;;;;11.93;8.50;;;;;;;16.74;100.00;100701.81;4982360;28;20465;-69
2022/06/08 09:04:52;;;;;;;8.97;7.63;;;;;;;17.49;100.00;100803.72;4973955;28;21221;-69
2022/06/08 09:07:19;;;;;;;8.67;7.73;;;;;;;17.28;100.00;100764.59;4974977;28;20469;-69
2022/06/08 09:09:45;;;;;;;7.07;6.37;;;;;;;17.90;100.00;100807.09;4974401;28;20513;-69
2022/06/08 09:12:15;;;;;;;9.13;6.80;;;;;;;17.73;100.00;100798.94;4974992;28;20483;-68
2022/06/08 09:14:58;;;;;;;7.43;6.50;;;;;;;17.49;100.00;100752.19;4974941;28;20952;-67
2022/06/08 09:17:57;;;;;;;6.97;6.37;;;;;;;17.30;100.00;100708.25;4976658;28;20850;-68
2022/06/08 09:20:30;;;;;;;8.00;5.70;;;;;;;17.82;100.00;100780.41;4975194;28;21010;-69
2022/06/08 09:23:17;;;;;;;7.30;6.60;;;;;;;17.78;100.00;100760.25;4976814;28;20496;-68
2022/06/08 09:25:42;;;;;;;9.23;7.50;;;;;;;17.45;100.00;100763.78;4974978;28;20849;-69
2022/06/08 09:28:29;;;;;;;6.77;6.00;;;;;;;17.62;100.00;100780.88;4974051;28;20446;-70
2022/06/08 09:30:55;;;;;;;6.60;5.90;;;;;;;17.59;100.00;100781.38;4976609;28;20220;-70
2022/06/08 09:33:33;;;;;;;7.93;5.50;;;;;;;17.73;100.00;100769.09;4975130;28;20465;-70
2022/06/08 09:36:24;;;;;;;6.77;6.07;;;;;;;17.67;100.00;100769.28;4974946;28;20214;-69
2022/06/08 09:38:50;;;;;;;7.50;6.00;;;;;;;17.80;100.00;100787.97;4973163;28;20510;-70
2022/06/08 09:41:24;;;;;;;7.40;5.60;;;;;;;17.84;100.00;100770.94;4972721;28;20460;-69
2022/06/08 09:44:17;;;;;;;7.83;6.93;;;;;;;17.65;100.00;100761.41;4976427;28;20274;-69
2022/06/08 09:53:12;;;;;;;7.50;5.87;;;;;;;17.98;100.00;100752.41;4968711;28;20963;-69
2022/06/08 09:55:48;;;;;;;7.17;5.53;;;;;;;18.00;100.00;100734.00;4973131;28;20456;-69
2022/06/08 09:58:37;;;;;;;10.90;6.23;;;;;;;17.77;100.00;100747.75;4970885;28;20542;-69
2022/06/08 10:01:21;;;;;;;8.47;7.03;;;;;;;17.73;100.00;100752.00;4973286;28;20873;-69
2022/06/08 10:04:10;;;;;;;6.10;5.23;;;;;;;17.78;100.00;100752.13;4971671;28;20528;-68
2022/06/08 10:06:52;;;;;;;5.33;4.83;;;;;;;17.58;100.00;100753.41;4975911;28;20460;-68
2022/06/08 10:09:52;;;;;;;5.87;5.30;;;;;;;17.61;100.00;100746.69;4979986;28;20437;-69
2022/06/08 10:12:40;;;;;;;4.93;4.43;;;;;;;17.70;100.00;100747.91;4975449;28;20464;-68
2022/06/08 10:15:24;;;;;;;7.20;4.67;;;;;;;17.80;100.00;100755.41;4975265;28;20457;-69
2022/06/08 10:18:00;;;;;;;4.40;3.80;;;;;;;17.99;100.00;100740.50;4976697;28;20823;-69
2022/06/08 10:20:30;;;;;;;3.77;3.33;;;;;;;18.03;100.00;100738.94;4976043;28;20454;-69
2022/06/08 10:23:01;;;;;;;4.37;3.23;;;;;;;17.57;100.00;100665.00;4975166;28;20451;-69
2022/06/08 10:25:40;;;;;;;2.43;2.10;;;;;;;17.96;100.00;100715.75;5017540;22;20603;-71
2022/06/08 10:28:35;;;;;;;3.30;2.87;;;;;;;18.01;100.00;100729.38;5060569;28;20462;-71
2022/06/08 10:31:06;;;;;;;3.83;2.67;;;;;;;17.81;100.00;100681.09;5061606;28;20890;-71
2022/06/08 10:33:51;;;;;;;5.67;2.90;;;;;;;17.99;100.00;100705.22;5060437;28;20461;-69
2022/06/08 10:36:17;;;;;;;3.20;2.43;;;;;;;17.72;100.00;100639.16;5061263;28;20445;-70
2022/06/08 10:38:44;;;;;;;3.30;2.50;;;;;;;18.27;100.00;100712.34;5060240;28;20913;-69
2022/06/08 10:44:01;;;;;;;2.47;2.27;;;;;;;18.80;100.00;100712.69;5060677;28;20417;-69
2022/06/08 10:46:32;;;;;;;2.90;2.60;;;;;;;18.72;100.00;100710.44;5063711;28;20434;-69
2022/06/08 10:48:58;;;;;;;4.23;2.50;;;;;;;18.67;100.00;100702.22;5065325;28;20441;-69
2022/06/08 10:51:29;;;;;;;3.20;2.90;;;;;;;18.54;100.00;100684.41;5064819;28;20499;-69
2022/06/08 10:56:38;;;;;;;3.23;2.10;;;;;;;18.77;100.00;100687.94;5062540;28;20486;-69
2022/06/08 10:59:06;;;;;;;2.70;1.93;;;;;;;18.80;100.00;100692.84;5062591;28;20442;-69
2022/06/08 11:01:56;;;;;;;2.50;2.23;;;;;;;18.77;100.00;100698.81;5058456;28;20187;-69
2022/06/08 11:04:31;;;;;;;3.53;2.17;;;;;;;18.93;100.00;100692.44;5061408;28;20444;-70
2022/06/08 11:07:10;;;;;;;4.20;2.70;;;;;;;18.81;100.00;100683.66;5058053;28;20456;-69
2022/06/08 11:09:36;;;;;;;2.80;2.47;;;;;;;18.70;100.00;100693.56;5055245;28;20594;-70
2022/06/08 11:12:13;;;;;;;3.40;2.20;;;;;;;18.77;100.00;100690.66;5060413;28;20449;-69
2022/06/08 11:14:47;;;;;;;2.70;2.23;;;;;;;18.87;100.00;100678.00;5059241;28;20211;-69
2022/06/08 11:17:30;;;;;;;3.47;2.30;;;;;;;18.79;100.00;100672.19;5060625;28;20919;-70
2022/06/08 11:20:13;;;;;;;3.40;2.03;;;;;;;19.27;100.00;100684.03;5060851;28;20531;-69
2022/06/08 11:22:52;;;;;;;2.80;2.00;;;;;;;19.49;100.00;100676.56;5057329;28;20433;-70
2022/06/08 11:25:26;;;;;;;2.70;2.03;;;;;;;19.28;100.00;100655.75;5058500;28;20964;-70
2022/06/08 11:28:28;;;;;;;8.13;2.00;;;;;;;19.19;100.00;100666.31;5058892;28;20449;-70
2022/06/08 11:30:58;;;;;;;4.00;1.87;;;;;;;19.07;100.00;100631.13;5063697;28;20830;-70
2022/06/08 11:33:57;;;;;;;2.47;1.80;;;;;;;19.57;100.00;100648.88;5062772;28;20833;-70
2022/06/08 11:36:37;;;;;;;1.53;1.30;;;;;;;19.57;100.00;100670.63;5058244;28;20842;-70
2022/06/08 11:39:25;;;;;;;1.50;1.40;;;;;;;19.73;100.00;100657.13;5061286;28;20436;-69
2022/06/08 11:41:59;;;;;;;5.73;2.17;;;;;;;19.78;100.00;100665.34;5056880;28;20631;-70
2022/06/08 11:44:30;;;;;;;3.83;2.00;;;;;;;19.70;100.00;100655.78;5054622;28;20452;-70
2022/06/08 11:47:16;;;;;;;2.60;2.27;;;;;;;19.86;100.00;100632.19;5059019;28;20437;-73
2022/06/08 11:49:55;;;;;;;3.20;2.50;;;;;;;19.91;100.00;100625.94;5058271;28;20473;-79
2022/06/08 11:52:26;;;;;;;2.83;2.10;;;;;;;20.17;100.00;100635.03;5057440;28;20460;-78